sensor_id;sensor_type;location;lat;lon;timestamp;P1;durP1;ratioP1;P2;durP2;ratioP2
18931;SDS011;9598;50.954;3.112;2023-09-19T00:03:47;6.20;;;2.50;;
18931;SDS011;9598;50.954;3.112;2023-09-19T00:08:49;7.30;;;2.60;;
18931;SDS011;9598;50.954;3.112;2023-09-19T00:13:53;9.02;;;2.55;;
18931;SDS011;9598;50.954;3.112;2023-09-19T00:18:59;6.63;;;2.08;;
18931;SDS011;9598;50.954;3.112;2023-09-19T00:24:07;6.10;;;2.38;;
18931;SDS011;9598;50.954;3.112;2023-09-19T00:29:11;6.80;;;2.33;;
18931;SDS011;9598;50.954;3.112;2023-09-19T00:34:16;8.80;;;2.45;;
18931;SDS011;9598;50.954;3.112;2023-09-19T00:39:18;8.23;;;2.40;;
18931;SDS011;9598;50.954;3.112;2023-09-19T00:44:23;8.45;;;2.80;;
18931;SDS011;9598;50.954;3.112;2023-09-19T00:49:25;8.30;;;3.15;;
18931;SDS011;9598;50.954;3.112;2023-09-19T00:54:28;6.10;;;2.40;;
18931;SDS011;9598;50.954;3.112;2023-09-19T00:59:32;8.98;;;3.47;;
18931;SDS011;9598;50.954;3.112;2023-09-19T01:04:35;9.57;;;2.83;;
18931;SDS011;9598;50.954;3.112;2023-09-19T01:09:38;8.45;;;2.85;;
18931;SDS011;9598;50.954;3.112;2023-09-19T01:14:43;9.93;;;3.38;;
18931;SDS011;9598;50.954;3.112;2023-09-19T01:20:03;8.75;;;3.78;;
18931;SDS011;9598;50.954;3.112;2023-09-19T01:25:40;9.52;;;2.92;;
18931;SDS011;9598;50.954;3.112;2023-09-19T01:31:00;8.32;;;3.15;;
18931;SDS011;9598;50.954;3.112;2023-09-19T01:36:04;12.18;;;3.65;;
18931;SDS011;9598;50.954;3.112;2023-09-19T01:41:09;9.10;;;2.78;;
18931;SDS011;9598;50.954;3.112;2023-09-19T01:46:18;8.00;;;3.42;;
18931;SDS011;9598;50.954;3.112;2023-09-19T01:51:27;8.32;;;3.03;;
18931;SDS011;9598;50.954;3.112;2023-09-19T01:56:36;9.90;;;3.03;;
18931;SDS011;9598;50.954;3.112;2023-09-19T02:01:45;10.38;;;3.17;;
18931;SDS011;9598;50.954;3.112;2023-09-19T02:06:48;7.63;;;2.65;;
18931;SDS011;9598;50.954;3.112;2023-09-19T02:11:52;9.55;;;2.72;;
18931;SDS011;9598;50.954;3.112;2023-09-19T02:16:57;9.95;;;3.50;;
18931;SDS011;9598;50.954;3.112;2023-09-19T02:22:00;8.48;;;3.30;;
18931;SDS011;9598;50.954;3.112;2023-09-19T02:27:03;7.05;;;2.70;;
18931;SDS011;9598;50.954;3.112;2023-09-19T02:32:07;8.65;;;2.78;;
18931;SDS011;9598;50.954;3.112;2023-09-19T02:37:10;9.27;;;3.13;;
18931;SDS011;9598;50.954;3.112;2023-09-19T02:42:13;10.35;;;3.00;;
18931;SDS011;9598;50.954;3.112;2023-09-19T02:47:17;7.85;;;2.63;;
18931;SDS011;9598;50.954;3.112;2023-09-19T02:52:19;8.27;;;2.90;;
18931;SDS011;9598;50.954;3.112;2023-09-19T02:57:21;7.28;;;3.03;;
18931;SDS011;9598;50.954;3.112;2023-09-19T03:02:25;8.05;;;3.17;;
18931;SDS011;9598;50.954;3.112;2023-09-19T03:07:28;9.18;;;2.95;;
18931;SDS011;9598;50.954;3.112;2023-09-19T03:12:31;11.98;;;3.47;;
18931;SDS011;9598;50.954;3.112;2023-09-19T03:17:35;5.82;;;2.35;;
18931;SDS011;9598;50.954;3.112;2023-09-19T03:22:37;9.45;;;2.88;;
18931;SDS011;9598;50.954;3.112;2023-09-19T03:27:40;8.98;;;3.03;;
18931;SDS011;9598;50.954;3.112;2023-09-19T03:32:45;9.40;;;3.03;;
18931;SDS011;9598;50.954;3.112;2023-09-19T03:37:50;4.78;;;2.60;;
18931;SDS011;9598;50.954;3.112;2023-09-19T03:42:53;11.57;;;3.90;;
18931;SDS011;9598;50.954;3.112;2023-09-19T03:47:57;11.18;;;3.40;;
18931;SDS011;9598;50.954;3.112;2023-09-19T03:52:59;8.40;;;3.55;;
18931;SDS011;9598;50.954;3.112;2023-09-19T03:58:02;8.98;;;3.08;;
18931;SDS011;9598;50.954;3.112;2023-09-19T04:03:06;8.45;;;3.00;;
18931;SDS011;9598;50.954;3.112;2023-09-19T04:08:09;6.38;;;2.95;;
18931;SDS011;9598;50.954;3.112;2023-09-19T04:13:11;10.07;;;3.00;;
18931;SDS011;9598;50.954;3.112;2023-09-19T04:18:14;11.25;;;2.90;;
18931;SDS011;9598;50.954;3.112;2023-09-19T04:23:16;13.00;;;3.22;;
18931;SDS011;9598;50.954;3.112;2023-09-19T04:28:20;8.15;;;3.50;;
18931;SDS011;9598;50.954;3.112;2023-09-19T04:33:23;11.60;;;2.90;;
18931;SDS011;9598;50.954;3.112;2023-09-19T04:38:27;7.97;;;2.70;;
18931;SDS011;9598;50.954;3.112;2023-09-19T04:43:29;8.48;;;3.17;;
18931;SDS011;9598;50.954;3.112;2023-09-19T04:48:32;11.13;;;3.03;;
18931;SDS011;9598;50.954;3.112;2023-09-19T04:53:35;9.68;;;2.95;;
18931;SDS011;9598;50.954;3.112;2023-09-19T04:58:38;10.75;;;3.15;;
18931;SDS011;9598;50.954;3.112;2023-09-19T05:03:41;10.10;;;2.97;;
18931;SDS011;9598;50.954;3.112;2023-09-19T05:08:45;10.88;;;3.45;;
18931;SDS011;9598;50.954;3.112;2023-09-19T05:13:47;8.77;;;3.13;;
18931;SDS011;9598;50.954;3.112;2023-09-19T05:18:51;8.55;;;3.42;;
18931;SDS011;9598;50.954;3.112;2023-09-19T05:23:53;8.13;;;2.58;;
18931;SDS011;9598;50.954;3.112;2023-09-19T05:28:55;12.65;;;3.70;;
18931;SDS011;9598;50.954;3.112;2023-09-19T05:33:59;10.88;;;2.92;;
18931;SDS011;9598;50.954;3.112;2023-09-19T05:39:01;15.63;;;3.42;;
18931;SDS011;9598;50.954;3.112;2023-09-19T05:44:14;9.63;;;3.47;;
18931;SDS011;9598;50.954;3.112;2023-09-19T05:49:17;11.57;;;3.25;;
18931;SDS011;9598;50.954;3.112;2023-09-19T05:54:21;7.75;;;2.85;;
18931;SDS011;9598;50.954;3.112;2023-09-19T05:59:24;9.90;;;3.42;;
18931;SDS011;9598;50.954;3.112;2023-09-19T06:04:27;12.35;;;3.30;;
18931;SDS011;9598;50.954;3.112;2023-09-19T06:09:31;12.50;;;3.55;;
18931;SDS011;9598;50.954;3.112;2023-09-19T06:14:34;8.73;;;3.15;;
18931;SDS011;9598;50.954;3.112;2023-09-19T06:19:37;15.55;;;2.88;;
18931;SDS011;9598;50.954;3.112;2023-09-19T06:24:39;8.70;;;3.20;;
18931;SDS011;9598;50.954;3.112;2023-09-19T06:29:41;8.10;;;3.10;;
18931;SDS011;9598;50.954;3.112;2023-09-19T06:34:45;11.50;;;3.08;;
18931;SDS011;9598;50.954;3.112;2023-09-19T06:39:47;11.77;;;3.45;;
18931;SDS011;9598;50.954;3.112;2023-09-19T06:44:49;11.25;;;3.20;;
18931;SDS011;9598;50.954;3.112;2023-09-19T06:49:53;6.88;;;2.55;;
18931;SDS011;9598;50.954;3.112;2023-09-19T06:54:55;9.88;;;2.90;;
18931;SDS011;9598;50.954;3.112;2023-09-19T06:59:57;8.52;;;3.13;;
18931;SDS011;9598;50.954;3.112;2023-09-19T07:05:03;10.38;;;3.25;;
18931;SDS011;9598;50.954;3.112;2023-09-19T07:10:07;7.65;;;2.63;;
18931;SDS011;9598;50.954;3.112;2023-09-19T07:15:11;11.40;;;2.88;;
18931;SDS011;9598;50.954;3.112;2023-09-19T07:20:15;8.73;;;3.28;;
18931;SDS011;9598;50.954;3.112;2023-09-19T07:25:17;9.18;;;2.80;;
18931;SDS011;9598;50.954;3.112;2023-09-19T07:30:20;10.48;;;3.40;;
18931;SDS011;9598;50.954;3.112;2023-09-19T07:35:23;9.57;;;3.42;;
18931;SDS011;9598;50.954;3.112;2023-09-19T07:40:25;8.55;;;3.00;;
18931;SDS011;9598;50.954;3.112;2023-09-19T07:45:29;7.57;;;2.60;;
18931;SDS011;9598;50.954;3.112;2023-09-19T07:50:34;6.68;;;2.83;;
18931;SDS011;9598;50.954;3.112;2023-09-19T07:55:36;8.93;;;2.67;;
18931;SDS011;9598;50.954;3.112;2023-09-19T08:00:40;8.43;;;3.10;;
18931;SDS011;9598;50.954;3.112;2023-09-19T08:05:43;9.95;;;3.28;;
18931;SDS011;9598;50.954;3.112;2023-09-19T08:10:45;9.13;;;3.33;;
18931;SDS011;9598;50.954;3.112;2023-09-19T08:15:53;7.30;;;2.85;;
18931;SDS011;9598;50.954;3.112;2023-09-19T08:20:57;11.90;;;3.55;;
18931;SDS011;9598;50.954;3.112;2023-09-19T08:26:00;9.45;;;3.33;;
18931;SDS011;9598;50.954;3.112;2023-09-19T08:31:07;8.85;;;2.50;;
18931;SDS011;9598;50.954;3.112;2023-09-19T08:36:11;8.00;;;2.25;;
18931;SDS011;9598;50.954;3.112;2023-09-19T08:41:16;10.63;;;2.33;;
18931;SDS011;9598;50.954;3.112;2023-09-19T08:46:20;8.65;;;3.03;;
18931;SDS011;9598;50.954;3.112;2023-09-19T08:51:30;7.68;;;2.50;;
18931;SDS011;9598;50.954;3.112;2023-09-19T08:56:44;6.60;;;2.58;;
18931;SDS011;9598;50.954;3.112;2023-09-19T09:01:48;9.60;;;2.33;;
18931;SDS011;9598;50.954;3.112;2023-09-19T09:06:55;11.07;;;2.47;;
18931;SDS011;9598;50.954;3.112;2023-09-19T09:11:58;6.78;;;2.30;;
18931;SDS011;9598;50.954;3.112;2023-09-19T09:17:01;6.47;;;2.10;;
18931;SDS011;9598;50.954;3.112;2023-09-19T09:22:08;4.53;;;1.83;;
18931;SDS011;9598;50.954;3.112;2023-09-19T09:27:10;4.97;;;2.15;;
18931;SDS011;9598;50.954;3.112;2023-09-19T09:32:16;5.50;;;2.30;;
18931;SDS011;9598;50.954;3.112;2023-09-19T09:37:22;5.35;;;2.03;;
18931;SDS011;9598;50.954;3.112;2023-09-19T09:42:31;7.43;;;2.45;;
18931;SDS011;9598;50.954;3.112;2023-09-19T09:47:40;5.03;;;2.00;;
18931;SDS011;9598;50.954;3.112;2023-09-19T09:52:51;6.32;;;2.00;;
18931;SDS011;9598;50.954;3.112;2023-09-19T09:58:03;9.63;;;1.75;;
18931;SDS011;9598;50.954;3.112;2023-09-19T10:03:19;4.60;;;1.73;;
18931;SDS011;9598;50.954;3.112;2023-09-19T10:08:24;5.03;;;1.60;;
18931;SDS011;9598;50.954;3.112;2023-09-19T10:13:31;5.00;;;1.77;;
18931;SDS011;9598;50.954;3.112;2023-09-19T10:18:37;6.72;;;1.70;;
18931;SDS011;9598;50.954;3.112;2023-09-19T10:23:43;4.00;;;1.50;;
18931;SDS011;9598;50.954;3.112;2023-09-19T10:28:46;5.10;;;1.73;;
18931;SDS011;9598;50.954;3.112;2023-09-19T10:33:51;5.03;;;1.42;;
18931;SDS011;9598;50.954;3.112;2023-09-19T10:38:58;3.22;;;1.35;;
18931;SDS011;9598;50.954;3.112;2023-09-19T10:44:03;2.80;;;1.35;;
18931;SDS011;9598;50.954;3.112;2023-09-19T10:49:06;3.22;;;1.33;;
18931;SDS011;9598;50.954;3.112;2023-09-19T10:54:13;3.35;;;1.40;;
18931;SDS011;9598;50.954;3.112;2023-09-19T10:59:18;3.90;;;1.45;;
18931;SDS011;9598;50.954;3.112;2023-09-19T11:04:24;2.70;;;1.13;;
18931;SDS011;9598;50.954;3.112;2023-09-19T11:09:43;3.35;;;1.67;;
18931;SDS011;9598;50.954;3.112;2023-09-19T11:14:51;3.80;;;1.55;;
18931;SDS011;9598;50.954;3.112;2023-09-19T11:25:43;5.43;;;1.58;;
18931;SDS011;9598;50.954;3.112;2023-09-19T11:30:49;6.28;;;2.00;;
18931;SDS011;9598;50.954;3.112;2023-09-19T11:36:00;4.28;;;1.80;;
18931;SDS011;9598;50.954;3.112;2023-09-19T11:46:51;5.13;;;2.10;;
18931;SDS011;9598;50.954;3.112;2023-09-19T11:51:54;6.97;;;2.13;;
18931;SDS011;9598;50.954;3.112;2023-09-19T11:56:59;4.18;;;2.03;;
18931;SDS011;9598;50.954;3.112;2023-09-19T12:02:04;6.80;;;2.55;;
18931;SDS011;9598;50.954;3.112;2023-09-19T12:07:09;10.65;;;2.70;;
18931;SDS011;9598;50.954;3.112;2023-09-19T12:12:20;4.57;;;2.30;;
18931;SDS011;9598;50.954;3.112;2023-09-19T12:17:34;8.30;;;2.92;;
18931;SDS011;9598;50.954;3.112;2023-09-19T12:22:39;7.20;;;2.42;;
18931;SDS011;9598;50.954;3.112;2023-09-19T12:27:43;6.85;;;2.58;;
18931;SDS011;9598;50.954;3.112;2023-09-19T12:32:47;6.13;;;2.78;;
18931;SDS011;9598;50.954;3.112;2023-09-19T12:37:51;7.10;;;2.28;;
18931;SDS011;9598;50.954;3.112;2023-09-19T12:42:56;6.15;;;2.63;;
18931;SDS011;9598;50.954;3.112;2023-09-19T12:48:18;6.10;;;2.40;;
18931;SDS011;9598;50.954;3.112;2023-09-19T12:53:24;6.68;;;1.92;;
18931;SDS011;9598;50.954;3.112;2023-09-19T12:58:30;7.10;;;2.33;;
18931;SDS011;9598;50.954;3.112;2023-09-19T13:03:34;6.13;;;2.50;;
18931;SDS011;9598;50.954;3.112;2023-09-19T13:08:37;6.63;;;2.50;;
18931;SDS011;9598;50.954;3.112;2023-09-19T13:13:44;5.88;;;2.08;;
18931;SDS011;9598;50.954;3.112;2023-09-19T13:18:50;8.27;;;2.78;;
18931;SDS011;9598;50.954;3.112;2023-09-19T13:23:54;6.68;;;2.75;;
18931;SDS011;9598;50.954;3.112;2023-09-19T13:29:01;8.93;;;2.20;;
18931;SDS011;9598;50.954;3.112;2023-09-19T13:34:03;7.15;;;2.47;;
18931;SDS011;9598;50.954;3.112;2023-09-19T13:39:05;7.15;;;2.47;;
18931;SDS011;9598;50.954;3.112;2023-09-19T13:44:10;5.45;;;2.35;;
18931;SDS011;9598;50.954;3.112;2023-09-19T13:49:13;6.15;;;2.28;;
18931;SDS011;9598;50.954;3.112;2023-09-19T13:54:15;7.63;;;2.42;;
18931;SDS011;9598;50.954;3.112;2023-09-19T13:59:18;7.32;;;3.13;;
18931;SDS011;9598;50.954;3.112;2023-09-19T14:04:21;7.05;;;2.53;;
18931;SDS011;9598;50.954;3.112;2023-09-19T14:09:23;6.50;;;2.83;;
18931;SDS011;9598;50.954;3.112;2023-09-19T14:14:27;6.72;;;3.22;;
18931;SDS011;9598;50.954;3.112;2023-09-19T14:19:29;8.38;;;2.83;;
18931;SDS011;9598;50.954;3.112;2023-09-19T14:24:32;6.28;;;2.90;;
18931;SDS011;9598;50.954;3.112;2023-09-19T14:29:35;9.23;;;3.05;;
18931;SDS011;9598;50.954;3.112;2023-09-19T14:34:38;9.98;;;3.17;;
18931;SDS011;9598;50.954;3.112;2023-09-19T14:39:42;6.53;;;2.95;;
18931;SDS011;9598;50.954;3.112;2023-09-19T14:44:46;5.45;;;2.50;;
18931;SDS011;9598;50.954;3.112;2023-09-19T14:49:48;7.60;;;3.15;;
18931;SDS011;9598;50.954;3.112;2023-09-19T14:54:50;5.57;;;3.03;;
18931;SDS011;9598;50.954;3.112;2023-09-19T14:59:54;11.32;;;3.60;;
18931;SDS011;9598;50.954;3.112;2023-09-19T15:04:56;8.60;;;3.60;;
18931;SDS011;9598;50.954;3.112;2023-09-19T15:09:58;7.70;;;3.10;;
18931;SDS011;9598;50.954;3.112;2023-09-19T15:15:02;8.45;;;3.47;;
18931;SDS011;9598;50.954;3.112;2023-09-19T15:20:06;10.82;;;3.55;;
18931;SDS011;9598;50.954;3.112;2023-09-19T15:25:08;8.43;;;3.58;;
18931;SDS011;9598;50.954;3.112;2023-09-19T15:30:12;12.93;;;3.50;;
18931;SDS011;9598;50.954;3.112;2023-09-19T15:35:16;7.05;;;2.85;;
18931;SDS011;9598;50.954;3.112;2023-09-19T15:40:18;9.27;;;4.20;;
18931;SDS011;9598;50.954;3.112;2023-09-19T15:45:22;8.55;;;3.75;;
18931;SDS011;9598;50.954;3.112;2023-09-19T15:50:25;9.15;;;3.63;;
18931;SDS011;9598;50.954;3.112;2023-09-19T15:55:27;10.95;;;3.75;;
18931;SDS011;9598;50.954;3.112;2023-09-19T16:00:31;8.27;;;3.50;;
18931;SDS011;9598;50.954;3.112;2023-09-19T16:05:37;8.80;;;3.67;;
18931;SDS011;9598;50.954;3.112;2023-09-19T16:10:39;10.40;;;3.25;;
18931;SDS011;9598;50.954;3.112;2023-09-19T16:15:43;9.07;;;3.80;;
18931;SDS011;9598;50.954;3.112;2023-09-19T16:20:45;8.82;;;4.10;;
18931;SDS011;9598;50.954;3.112;2023-09-19T16:25:47;7.35;;;3.70;;
18931;SDS011;9598;50.954;3.112;2023-09-19T16:30:50;7.78;;;3.50;;
18931;SDS011;9598;50.954;3.112;2023-09-19T16:35:53;8.85;;;3.38;;
18931;SDS011;9598;50.954;3.112;2023-09-19T16:40:56;8.00;;;3.30;;
18931;SDS011;9598;50.954;3.112;2023-09-19T16:46:01;7.65;;;3.63;;
18931;SDS011;9598;50.954;3.112;2023-09-19T16:51:06;7.63;;;3.25;;
18931;SDS011;9598;50.954;3.112;2023-09-19T16:56:10;8.98;;;4.43;;
18931;SDS011;9598;50.954;3.112;2023-09-19T17:01:15;8.25;;;3.55;;
18931;SDS011;9598;50.954;3.112;2023-09-19T17:06:18;8.43;;;4.32;;
18931;SDS011;9598;50.954;3.112;2023-09-19T17:11:23;9.50;;;4.28;;
18931;SDS011;9598;50.954;3.112;2023-09-19T17:16:27;7.30;;;3.78;;
18931;SDS011;9598;50.954;3.112;2023-09-19T17:21:29;9.40;;;4.07;;
18931;SDS011;9598;50.954;3.112;2023-09-19T17:26:32;7.20;;;3.35;;
18931;SDS011;9598;50.954;3.112;2023-09-19T17:31:35;7.57;;;3.42;;
18931;SDS011;9598;50.954;3.112;2023-09-19T17:36:38;7.68;;;3.85;;
18931;SDS011;9598;50.954;3.112;2023-09-19T17:41:42;8.38;;;3.75;;
18931;SDS011;9598;50.954;3.112;2023-09-19T17:46:46;10.48;;;3.92;;
18931;SDS011;9598;50.954;3.112;2023-09-19T17:51:48;7.90;;;3.75;;
18931;SDS011;9598;50.954;3.112;2023-09-19T17:56:50;7.95;;;3.92;;
18931;SDS011;9598;50.954;3.112;2023-09-19T18:01:54;6.05;;;3.55;;
18931;SDS011;9598;50.954;3.112;2023-09-19T18:06:56;9.55;;;3.88;;
18931;SDS011;9598;50.954;3.112;2023-09-19T18:11:58;8.88;;;3.92;;
18931;SDS011;9598;50.954;3.112;2023-09-19T18:17:02;11.50;;;4.10;;
18931;SDS011;9598;50.954;3.112;2023-09-19T18:22:04;7.38;;;3.67;;
18931;SDS011;9598;50.954;3.112;2023-09-19T18:27:06;9.15;;;3.63;;
18931;SDS011;9598;50.954;3.112;2023-09-19T18:32:10;9.27;;;4.18;;
18931;SDS011;9598;50.954;3.112;2023-09-19T18:37:12;10.50;;;3.65;;
18931;SDS011;9598;50.954;3.112;2023-09-19T18:42:15;9.25;;;4.22;;
18931;SDS011;9598;50.954;3.112;2023-09-19T18:47:18;7.55;;;4.03;;
18931;SDS011;9598;50.954;3.112;2023-09-19T18:52:23;8.30;;;3.47;;
18931;SDS011;9598;50.954;3.112;2023-09-19T18:57:25;7.63;;;3.55;;
18931;SDS011;9598;50.954;3.112;2023-09-19T19:02:28;8.63;;;4.30;;
18931;SDS011;9598;50.954;3.112;2023-09-19T19:07:30;11.30;;;3.70;;
18931;SDS011;9598;50.954;3.112;2023-09-19T19:12:35;8.93;;;3.72;;
18931;SDS011;9598;50.954;3.112;2023-09-19T19:17:38;9.93;;;3.80;;
18931;SDS011;9598;50.954;3.112;2023-09-19T19:22:43;6.60;;;3.42;;
18931;SDS011;9598;50.954;3.112;2023-09-19T19:27:46;6.50;;;3.85;;
18931;SDS011;9598;50.954;3.112;2023-09-19T19:32:49;10.35;;;4.15;;
18931;SDS011;9598;50.954;3.112;2023-09-19T19:37:51;7.60;;;3.95;;
18931;SDS011;9598;50.954;3.112;2023-09-19T19:42:54;7.90;;;3.90;;
18931;SDS011;9598;50.954;3.112;2023-09-19T19:47:57;10.38;;;4.30;;
18931;SDS011;9598;50.954;3.112;2023-09-19T19:52:59;8.68;;;3.40;;
18931;SDS011;9598;50.954;3.112;2023-09-19T19:58:01;11.05;;;4.22;;
18931;SDS011;9598;50.954;3.112;2023-09-19T20:03:05;8.32;;;3.92;;
18931;SDS011;9598;50.954;3.112;2023-09-19T20:08:08;9.77;;;4.43;;
18931;SDS011;9598;50.954;3.112;2023-09-19T20:13:11;10.45;;;3.35;;
18931;SDS011;9598;50.954;3.112;2023-09-19T20:18:17;10.15;;;4.10;;
18931;SDS011;9598;50.954;3.112;2023-09-19T20:23:20;9.20;;;3.90;;
18931;SDS011;9598;50.954;3.112;2023-09-19T20:28:22;9.18;;;4.15;;
18931;SDS011;9598;50.954;3.112;2023-09-19T20:33:25;7.22;;;4.03;;
18931;SDS011;9598;50.954;3.112;2023-09-19T20:38:28;6.97;;;3.42;;
18931;SDS011;9598;50.954;3.112;2023-09-19T20:43:30;9.82;;;3.75;;
18931;SDS011;9598;50.954;3.112;2023-09-19T20:48:34;7.32;;;3.63;;
18931;SDS011;9598;50.954;3.112;2023-09-19T20:53:37;9.77;;;3.92;;
18931;SDS011;9598;50.954;3.112;2023-09-19T20:58:40;8.05;;;3.50;;
18931;SDS011;9598;50.954;3.112;2023-09-19T21:03:43;8.63;;;3.88;;
18931;SDS011;9598;50.954;3.112;2023-09-19T21:08:45;7.15;;;3.67;;
18931;SDS011;9598;50.954;3.112;2023-09-19T21:13:47;6.85;;;3.50;;
18931;SDS011;9598;50.954;3.112;2023-09-19T21:18:53;9.98;;;3.53;;
18931;SDS011;9598;50.954;3.112;2023-09-19T21:23:55;8.93;;;3.45;;
18931;SDS011;9598;50.954;3.112;2023-09-19T21:28:57;9.25;;;3.33;;
18931;SDS011;9598;50.954;3.112;2023-09-19T21:34:00;6.57;;;3.42;;
18931;SDS011;9598;50.954;3.112;2023-09-19T21:39:03;5.78;;;3.20;;
18931;SDS011;9598;50.954;3.112;2023-09-19T21:44:05;8.68;;;4.20;;
18931;SDS011;9598;50.954;3.112;2023-09-19T21:49:09;8.38;;;3.58;;
18931;SDS011;9598;50.954;3.112;2023-09-19T21:54:12;6.72;;;3.20;;
18931;SDS011;9598;50.954;3.112;2023-09-19T21:59:14;10.00;;;4.07;;
18931;SDS011;9598;50.954;3.112;2023-09-19T22:04:17;6.57;;;3.58;;
18931;SDS011;9598;50.954;3.112;2023-09-19T22:09:22;9.32;;;3.47;;
18931;SDS011;9598;50.954;3.112;2023-09-19T22:14:24;11.00;;;4.28;;
18931;SDS011;9598;50.954;3.112;2023-09-19T22:19:30;11.38;;;3.97;;
18931;SDS011;9598;50.954;3.112;2023-09-19T22:24:32;9.38;;;4.20;;
18931;SDS011;9598;50.954;3.112;2023-09-19T22:29:35;9.27;;;4.63;;
18931;SDS011;9598;50.954;3.112;2023-09-19T22:34:44;8.88;;;4.45;;
18931;SDS011;9598;50.954;3.112;2023-09-19T22:39:48;10.10;;;4.00;;
18931;SDS011;9598;50.954;3.112;2023-09-19T22:44:51;5.65;;;3.90;;
18931;SDS011;9598;50.954;3.112;2023-09-19T22:49:56;8.40;;;3.72;;
18931;SDS011;9598;50.954;3.112;2023-09-19T22:54:59;8.63;;;3.58;;
18931;SDS011;9598;50.954;3.112;2023-09-19T23:00:02;6.95;;;3.70;;
18931;SDS011;9598;50.954;3.112;2023-09-19T23:05:08;9.65;;;3.72;;
18931;SDS011;9598;50.954;3.112;2023-09-19T23:10:15;6.82;;;3.67;;
18931;SDS011;9598;50.954;3.112;2023-09-19T23:15:17;6.78;;;3.55;;
18931;SDS011;9598;50.954;3.112;2023-09-19T23:20:21;9.52;;;4.20;;
18931;SDS011;9598;50.954;3.112;2023-09-19T23:25:26;6.40;;;4.20;;
18931;SDS011;9598;50.954;3.112;2023-09-19T23:30:31;10.25;;;3.90;;
18931;SDS011;9598;50.954;3.112;2023-09-19T23:35:34;8.07;;;3.65;;
18931;SDS011;9598;50.954;3.112;2023-09-19T23:40:37;9.07;;;3.90;;
18931;SDS011;9598;50.954;3.112;2023-09-19T23:45:39;6.30;;;3.58;;
18931;SDS011;9598;50.954;3.112;2023-09-19T23:50:43;7.72;;;3.90;;
18931;SDS011;9598;50.954;3.112;2023-09-19T23:55:48;8.13;;;4.35;;
